Time;durP1;ratioP1;P1;durP2;ratioP2;P2;SDS_P1;SDS_P2;PMS_P1;PMS_P2;Temp;Humidity;BMP_temperature;BMP_pressure;BME280_temperature;BME280_humidity;BME280_pressure;Samples;Min_cycle;Max_cycle;Signal;HPM_P1;HPM_P2
2023/06/12 00:01:05;;;;;;;;;;;;;;;15.07;35.33;101472.85;105486;1297;72524;-86
2023/06/12 00:03:51;;;;;;;;;;;;;;;15.05;35.41;101471.36;105525;1297;59839;-86
2023/06/12 00:06:37;;;;;;;;;;;;;;;15.02;35.60;101474.03;105597;1297;59799;-86
2023/06/12 00:09:23;;;;;;;;;;;;;;;14.97;35.64;101477.08;105449;1296;75184;-86
2023/06/12 00:12:10;;;;;;;;;;;;;;;14.88;35.69;101474.48;105644;1296;68338;-86
2023/06/12 00:14:56;;;;;;;;;;;;;;;14.82;35.77;101475.64;105410;1297;71764;-86
2023/06/12 00:17:42;;;;;;;;;;;;;;;14.83;35.85;101479.25;105549;1297;60380;-86
2023/06/12 00:20:29;;;;;;;;;;;;;;;14.83;35.87;101475.80;105493;1297;60130;-86
2023/06/12 00:23:16;;;;;;;;;;;;;;;14.78;35.95;101475.90;105445;1297;75462;-86
2023/06/12 00:26:02;;;;;;;;;;;;;;;14.75;36.05;101475.42;105469;1297;67484;-86
2023/06/12 00:28:49;;;;;;;;;;;;;;;14.67;36.17;101470.89;105550;1296;70917;-86
2023/06/12 00:31:35;;;;;;;;;;;;;;;14.59;36.28;101475.38;105440;1300;59831;-86
2023/06/12 00:34:21;;;;;;;;;;;;;;;14.54;36.43;101477.58;105492;1298;59968;-86
2023/06/12 00:37:07;;;;;;;;;;;;;;;14.50;36.59;101474.88;105546;1297;74168;-87
2023/06/12 00:39:53;;;;;;;;;;;;;;;14.51;36.55;101474.70;105517;1297;67236;-86
2023/06/12 00:42:47;;;;;;;;;;;;;;;14.48;36.58;101473.52;105460;1297;71873;-86
2023/06/12 00:45:32;;;;;;;;;;;;;;;14.43;36.69;101468.61;105495;1298;59957;-85
2023/06/12 00:48:18;;;;;;;;;;;;;;;14.42;36.80;101470.36;105359;1297;173981;-86
2023/06/12 00:51:08;;;;;;;;;;;;;;;14.38;36.74;101474.56;105496;1297;74364;-86
2023/06/12 00:53:55;;;;;;;;;;;;;;;14.29;36.86;101468.30;105466;1297;67542;-86
2023/06/12 00:56:42;;;;;;;;;;;;;;;14.28;37.06;101467.11;105570;1296;71330;-86
2023/06/12 00:59:28;;;;;;;;;;;;;;;14.22;36.99;101479.68;105479;1297;59900;-85
2023/06/12 01:02:14;;;;;;;;;;;;;;;14.15;37.21;101480.66;105570;1297;59833;-86
2023/06/12 01:05:00;;;;;;;;;;;;;;;14.17;37.17;101477.00;105437;1299;74215;-86
2023/06/12 01:08:01;;;;;;;;;;;;;;;14.15;37.25;101480.66;105584;1297;68579;-85
2023/06/12 01:10:55;;;;;;;;;;;;;;;14.11;37.36;101481.09;105557;1297;72568;-85
2023/06/12 01:13:41;;;;;;;;;;;;;;;14.05;37.52;101484.83;105563;1297;59745;-86
2023/06/12 01:16:28;;;;;;;;;;;;;;;14.02;37.65;101480.92;105532;1297;60122;-86
2023/06/12 01:19:16;;;;;;;;;;;;;;;13.97;37.72;101480.84;105586;1296;75369;-86
2023/06/12 01:22:05;;;;;;;;;;;;;;;13.87;37.87;101480.28;105497;1297;68894;-86
2023/06/12 01:25:07;;;;;;;;;;;;;;;13.88;37.88;101476.98;105572;1296;72610;-86
2023/06/12 01:27:56;;;;;;;;;;;;;;;13.93;37.91;101478.65;105394;1299;60271;-87
2023/06/12 01:31:08;;;;;;;;;;;;;;;13.91;37.97;101478.15;105486;1297;60310;-86
2023/06/12 01:34:02;;;;;;;;;;;;;;;13.91;38.01;101476.41;105507;1297;74984;-86
2023/06/12 01:36:50;;;;;;;;;;;;;;;13.83;38.11;101477.05;105522;1297;68769;-87
2023/06/12 01:39:40;;;;;;;;;;;;;;;13.79;38.31;101477.48;105549;1297;71190;-86
2023/06/12 01:42:27;;;;;;;;;;;;;;;13.77;38.48;101474.20;105473;1296;60046;-86
2023/06/12 01:45:13;;;;;;;;;;;;;;;13.77;38.46;101472.98;105611;1296;60031;-86
2023/06/12 01:47:59;;;;;;;;;;;;;;;13.80;38.43;101475.02;105541;1298;74041;-86
2023/06/12 01:50:44;;;;;;;;;;;;;;;13.83;38.48;101474.27;105501;1297;67314;-86
2023/06/12 01:53:33;;;;;;;;;;;;;;;13.87;38.51;101479.09;105485;1298;72425;-87
2023/06/12 01:56:24;;;;;;;;;;;;;;;13.87;38.69;101477.68;105471;1297;59969;-86
2023/06/12 01:59:11;;;;;;;;;;;;;;;13.86;38.66;101475.79;105561;1297;60058;-86
2023/06/12 02:01:57;;;;;;;;;;;;;;;13.84;38.89;101476.86;105491;1297;75160;-86
2023/06/12 02:04:43;;;;;;;;;;;;;;;13.86;38.87;101475.80;105453;1298;68660;-86
2023/06/12 02:07:29;;;;;;;;;;;;;;;13.84;39.04;101474.61;105482;1297;72506;-86
2023/06/12 02:10:15;;;;;;;;;;;;;;;13.82;39.09;101477.59;105524;1297;59200;-86
2023/06/12 02:13:01;;;;;;;;;;;;;;;13.83;39.13;101479.65;105370;1297;60490;-86
2023/06/12 02:15:47;;;;;;;;;;;;;;;13.84;39.29;101477.39;105560;1297;73953;-86
2023/06/12 02:18:33;;;;;;;;;;;;;;;13.84;39.31;101474.61;105404;1297;67278;-86
2023/06/12 02:21:19;;;;;;;;;;;;;;;13.85;39.47;101478.06;105375;1297;72275;-86
2023/06/12 02:24:06;;;;;;;;;;;;;;;13.87;39.43;101474.05;105473;1297;59917;-86
2023/06/12 02:26:51;;;;;;;;;;;;;;;13.89;39.54;101474.02;105412;1297;60428;-86
2023/06/12 02:29:37;;;;;;;;;;;;;;;13.92;39.61;101472.41;105431;1297;74793;-86
2023/06/12 02:32:23;;;;;;;;;;;;;;;13.93;39.63;101473.96;105550;1297;68617;-86
2023/06/12 02:35:09;;;;;;;;;;;;;;;13.97;39.70;101475.98;105538;1297;72409;-86
2023/06/12 02:37:55;;;;;;;;;;;;;;;13.99;39.73;101476.13;105615;1297;60126;-86
2023/06/12 02:40:46;;;;;;;;;;;;;;;14.02;39.80;101477.98;105055;1297;326710;-86
2023/06/12 02:43:32;;;;;;;;;;;;;;;14.05;39.88;101479.45;105504;1297;73239;-86
2023/06/12 02:46:18;;;;;;;;;;;;;;;14.03;39.93;101481.95;105501;1297;68340;-86
2023/06/12 02:49:03;;;;;;;;;;;;;;;14.07;39.99;101483.23;105431;1296;71538;-86
2023/06/12 02:51:49;;;;;;;;;;;;;;;14.09;40.05;101486.33;105511;1296;59670;-86
2023/06/12 02:54:35;;;;;;;;;;;;;;;14.10;40.11;101485.79;105400;1300;59784;-86
2023/06/12 02:57:21;;;;;;;;;;;;;;;14.11;40.22;101488.02;105584;1297;74338;-86
2023/06/12 03:00:08;;;;;;;;;;;;;;;14.13;40.24;101488.69;105422;1296;67567;-85
2023/06/12 03:02:55;;;;;;;;;;;;;;;14.14;40.23;101489.02;105468;1297;70539;-86
2023/06/12 03:05:41;;;;;;;;;;;;;;;14.10;40.28;101495.67;105472;1297;60393;-86
2023/06/12 03:08:27;;;;;;;;;;;;;;;14.07;40.44;101496.40;105385;1298;59247;-86
2023/06/12 03:11:13;;;;;;;;;;;;;;;14.14;40.48;101496.30;105482;1297;75375;-86
2023/06/12 03:13:59;;;;;;;;;;;;;;;14.20;40.47;101499.67;105466;1297;68056;-86
2023/06/12 03:16:44;;;;;;;;;;;;;;;14.22;40.39;101500.67;105308;1297;72375;-86
2023/06/12 03:19:31;;;;;;;;;;;;;;;14.23;40.58;101501.52;105501;1296;59539;-86
2023/06/12 03:22:17;;;;;;;;;;;;;;;14.28;40.64;101504.90;105431;1297;60161;-86
2023/06/12 03:25:03;;;;;;;;;;;;;;;14.35;40.63;101504.80;105431;1297;75443;-87
2023/06/12 03:27:49;;;;;;;;;;;;;;;14.38;40.69;101508.55;105393;1297;67466;-86
2023/06/12 03:30:35;;;;;;;;;;;;;;;14.43;40.71;101505.37;105518;1296;72397;-86
2023/06/12 03:33:21;;;;;;;;;;;;;;;14.48;40.74;101503.55;105512;1300;60176;-86
2023/06/12 03:36:07;;;;;;;;;;;;;;;14.51;40.77;101503.84;105528;1297;59795;-86
2023/06/12 03:38:53;;;;;;;;;;;;;;;14.54;40.88;101504.13;105461;1296;75206;-86
2023/06/12 03:41:50;;;;;;;;;;;;;;;14.57;40.95;101503.70;105467;1296;68468;-85
2023/06/12 03:44:36;;;;;;;;;;;;;;;14.62;40.91;101506.39;105502;1297;71178;-85
2023/06/12 03:47:22;;;;;;;;;;;;;;;14.65;41.00;101507.73;105454;1297;59838;-85
2023/06/12 03:50:09;;;;;;;;;;;;;;;14.64;41.11;101503.41;105495;1297;60207;-85
2023/06/12 03:52:55;;;;;;;;;;;;;;;14.65;41.09;101501.83;105464;1297;74921;-85
2023/06/12 03:55:45;;;;;;;;;;;;;;;14.68;41.22;101503.51;105474;1296;67449;-85
2023/06/12 03:58:35;;;;;;;;;;;;;;;14.70;41.17;101503.63;105599;1297;72520;-87
2023/06/12 04:01:24;;;;;;;;;;;;;;;14.75;41.31;101506.48;105389;1297;60188;-87
2023/06/12 04:04:12;;;;;;;;;;;;;;;14.76;41.32;101509.45;105416;1299;59747;-88
2023/06/12 04:06:59;;;;;;;;;;;;;;;14.72;41.31;101508.81;105431;1297;73975;-88
2023/06/12 04:09:50;;;;;;;;;;;;;;;14.75;41.46;101503.71;105602;1297;69341;-88
2023/06/12 04:12:46;;;;;;;;;;;;;;;14.87;41.48;101507.31;105538;1296;70987;-87
2023/06/12 04:15:36;;;;;;;;;;;;;;;14.96;41.56;101506.45;105568;1297;59877;-88
2023/06/12 04:18:23;;;;;;;;;;;;;;;15.04;41.56;101511.13;105681;1295;60387;-88
2023/06/12 04:21:17;;;;;;;;;;;;;;;15.14;41.64;101512.30;105483;1296;74240;-88
2023/06/12 04:24:05;;;;;;;;;;;;;;;15.26;41.69;101510.65;105569;1296;67744;-88
2023/06/12 04:26:54;;;;;;;;;;;;;;;15.44;41.68;101513.41;105515;1297;71402;-88
2023/06/12 04:29:42;;;;;;;;;;;;;;;15.66;41.77;101516.40;105488;1296;59789;-88
2023/06/12 04:32:29;;;;;;;;;;;;;;;15.87;41.77;101516.80;105510;1297;59908;-88
2023/06/12 04:35:19;;;;;;;;;;;;;;;16.09;41.76;101519.05;105393;1297;75359;-88
2023/06/12 04:38:05;;;;;;;;;;;;;;;16.29;41.80;101519.39;105425;1297;67308;-90
2023/06/12 04:40:52;;;;;;;;;;;;;;;16.46;41.73;101520.69;105388;1299;71310;-90
2023/06/12 04:43:38;;;;;;;;;;;;;;;16.70;41.76;101525.48;105417;1299;59878;-90
2023/06/12 04:46:28;;;;;;;;;;;;;;;16.86;41.59;101527.11;105388;1297;60025;-90
2023/06/12 04:49:14;;;;;;;;;;;;;;;17.07;41.59;101530.73;105329;1297;74279;-91
2023/06/12 04:52:03;;;;;;;;;;;;;;;17.23;41.54;101531.80;105564;1297;67446;-90
2023/06/12 04:54:49;;;;;;;;;;;;;;;17.38;41.55;101532.23;105449;1297;71846;-91
2023/06/12 04:57:39;;;;;;;;;;;;;;;17.60;41.56;101528.09;105410;1297;60134;-90
2023/06/12 05:00:28;;;;;;;;;;;;;;;17.87;41.39;101535.11;105604;1297;59881;-90
2023/06/12 05:03:16;;;;;;;;;;;;;;;18.17;41.41;101534.66;105515;1296;75335;-91
2023/06/12 05:06:02;;;;;;;;;;;;;;;18.64;41.62;101532.35;105483;1297;67433;-92
2023/06/12 05:08:47;;;;;;;;;;;;;;;19.03;41.27;101531.30;105469;1297;70708;-90
2023/06/12 05:11:33;;;;;;;;;;;;;;;19.10;41.15;101532.98;105422;1297;59871;-90
2023/06/12 05:14:23;;;;;;;;;;;;;;;19.31;41.34;101539.32;105424;1296;60199;-90
2023/06/12 05:17:11;;;;;;;;;;;;;;;19.82;41.30;101540.52;105582;1298;74265;-90
2023/06/12 05:19:58;;;;;;;;;;;;;;;20.39;41.13;101542.02;105469;1298;68068;-90
2023/06/12 05:22:45;;;;;;;;;;;;;;;20.98;40.80;101542.45;105448;1298;72417;-91
2023/06/12 05:25:30;;;;;;;;;;;;;;;21.58;40.71;101539.66;105488;1297;59970;-90
2023/06/12 05:28:16;;;;;;;;;;;;;;;22.07;40.42;101542.23;105519;1297;60182;-88
2023/06/12 05:31:05;;;;;;;;;;;;;;;22.47;40.47;101542.30;105413;1297;74633;-88
2023/06/12 05:33:50;;;;;;;;;;;;;;;23.01;40.11;101543.02;105438;1298;67303;-88
2023/06/12 05:36:37;;;;;;;;;;;;;;;23.13;39.98;101547.45;105469;1297;71341;-88
2023/06/12 05:39:23;;;;;;;;;;;;;;;23.45;39.82;101549.94;105471;1298;59871;-88
2023/06/12 05:42:10;;;;;;;;;;;;;;;23.49;39.80;101552.02;105456;1296;59732;-88
2023/06/12 05:44:56;;;;;;;;;;;;;;;23.44;39.81;101546.13;105475;1297;75387;-88
2023/06/12 05:47:43;;;;;;;;;;;;;;;23.73;39.66;101548.95;105488;1297;67423;-88
2023/06/12 05:50:29;;;;;;;;;;;;;;;23.75;39.35;101549.52;105473;1298;73207;-88
2023/06/12 05:53:15;;;;;;;;;;;;;;;23.73;39.28;101549.96;105463;1296;59966;-88
2023/06/12 05:56:01;;;;;;;;;;;;;;;24.10;39.23;101553.48;105540;1296;59855;-89
2023/06/12 05:58:48;;;;;;;;;;;;;;;24.04;38.90;101560.02;105422;1297;74304;-89
2023/06/12 06:01:35;;;;;;;;;;;;;;;23.85;39.00;101560.04;105570;1296;67511;-88
2023/06/12 06:04:21;;;;;;;;;;;;;;;23.87;39.21;101560.83;105563;1296;72648;-88
2023/06/12 06:07:07;;;;;;;;;;;;;;;24.04;39.01;101559.77;105503;1297;60107;-88
2023/06/12 06:09:53;;;;;;;;;;;;;;;24.26;38.92;101559.61;105403;1296;59810;-88
2023/06/12 06:12:40;;;;;;;;;;;;;;;24.60;38.73;101561.10;105559;1297;75779;-88
2023/06/12 06:15:26;;;;;;;;;;;;;;;24.77;38.76;101560.10;105548;1297;67392;-88
2023/06/12 06:18:12;;;;;;;;;;;;;;;25.20;38.83;101563.27;105287;1297;72306;-88
2023/06/12 06:20:59;;;;;;;;;;;;;;;25.66;38.43;101566.73;105462;1297;59799;-89
2023/06/12 06:23:50;;;;;;;;;;;;;;;25.56;38.20;101567.19;105519;1297;59800;-88
2023/06/12 06:26:42;;;;;;;;;;;;;;;25.31;38.26;101568.05;105408;1296;74225;-88
2023/06/12 06:29:45;;;;;;;;;;;;;;;25.35;38.23;101572.40;105501;1296;67851;-89
2023/06/12 06:32:31;;;;;;;;;;;;;;;25.75;38.27;101573.02;105342;1297;71456;-88
2023/06/12 06:35:17;;;;;;;;;;;;;;;26.17;38.11;101574.66;105452;1296;60218;-88
2023/06/12 06:38:03;;;;;;;;;;;;;;;26.72;37.94;101574.49;105326;1296;59805;-88
2023/06/12 06:40:50;;;;;;;;;;;;;;;27.57;37.56;101575.40;105391;1297;75205;-89
2023/06/12 06:43:36;;;;;;;;;;;;;;;28.06;37.33;101581.58;105355;1300;67537;-88
2023/06/12 06:46:23;;;;;;;;;;;;;;;28.80;37.23;101580.34;105154;1299;286238;-87
2023/06/12 06:49:09;;;;;;;;;;;;;;;29.67;36.85;101586.24;105360;1298;60116;-87
2023/06/12 06:51:55;;;;;;;;;;;;;;;30.23;36.83;101582.30;105402;1297;59818;-88
2023/06/12 06:54:41;;;;;;;;;;;;;;;30.69;36.47;101584.26;105221;1297;74953;-88
2023/06/12 06:57:27;;;;;;;;;;;;;;;31.49;36.46;101588.27;105415;1297;68864;-88
2023/06/12 07:00:14;;;;;;;;;;;;;;;31.52;35.56;101585.88;105366;1296;74202;-87
2023/06/12 07:03:00;;;;;;;;;;;;;;;31.39;35.77;101584.23;105397;1297;59944;-87
2023/06/12 07:05:46;;;;;;;;;;;;;;;31.25;35.38;101582.38;105433;1297;59498;-87
2023/06/12 07:08:33;;;;;;;;;;;;;;;31.66;35.03;101581.09;105396;1297;73931;-87
2023/06/12 07:11:19;;;;;;;;;;;;;;;32.83;34.75;101580.73;105524;1295;66701;-87
2023/06/12 07:14:05;;;;;;;;;;;;;;;34.06;34.12;101579.61;105504;1296;71397;-87
2023/06/12 07:16:51;;;;;;;;;;;;;;;34.67;33.96;101578.86;105563;1296;59764;-88
2023/06/12 07:19:37;;;;;;;;;;;;;;;35.60;33.39;101580.31;105550;1297;60396;-88
2023/06/12 07:22:23;;;;;;;;;;;;;;;36.42;32.89;101581.85;105434;1296;75917;-89
2023/06/12 07:25:10;;;;;;;;;;;;;;;36.64;32.68;101585.77;105397;1297;68133;-89
2023/06/12 07:27:56;;;;;;;;;;;;;;;35.92;33.09;101578.50;105492;1297;72768;-88
2023/06/12 07:30:42;;;;;;;;;;;;;;;35.59;33.03;101577.11;105494;1296;60049;-89
2023/06/12 07:33:28;;;;;;;;;;;;;;;35.98;32.46;101571.40;105431;1296;60079;-89
2023/06/12 07:36:17;;;;;;;;;;;;;;;35.62;32.09;101568.15;105477;1297;73999;-89
2023/06/12 07:39:04;;;;;;;;;;;;;;;35.04;32.03;101565.03;105503;1297;68462;-89
2023/06/12 07:41:50;;;;;;;;;;;;;;;34.76;31.82;101569.59;105569;1296;74440;-89
2023/06/12 07:44:37;;;;;;;;;;;;;;;35.70;31.49;101571.86;105529;1296;59799;-89
2023/06/12 07:47:23;;;;;;;;;;;;;;;37.20;30.52;101566.15;105494;1297;59853;-89
2023/06/12 07:50:10;;;;;;;;;;;;;;;38.44;29.78;101564.38;105473;1298;74237;-88
2023/06/12 07:52:56;;;;;;;;;;;;;;;39.67;29.27;101564.73;105447;1296;67205;-89
2023/06/12 07:55:42;;;;;;;;;;;;;;;40.89;28.84;101566.35;105415;1296;71435;-89
2023/06/12 07:58:30;;;;;;;;;;;;;;;42.03;28.41;101564.70;105481;1297;60075;-89
2023/06/12 08:01:17;;;;;;;;;;;;;;;42.70;28.19;101557.54;105381;1299;60171;-89
2023/06/12 08:04:11;;;;;;;;;;;;;;;42.02;27.54;101560.95;105432;1296;75076;-89
2023/06/12 08:06:57;;;;;;;;;;;;;;;41.14;27.49;101560.86;105503;1297;67460;-88
2023/06/12 08:09:43;;;;;;;;;;;;;;;39.26;27.39;101551.39;105464;1297;72318;-88
2023/06/12 08:12:29;;;;;;;;;;;;;;;38.12;27.54;101546.56;105447;1296;59931;-88
2023/06/12 08:15:15;;;;;;;;;;;;;;;39.44;26.99;101542.89;105361;1297;60035;-88
2023/06/12 08:18:01;;;;;;;;;;;;;;;38.85;25.95;101549.25;105442;1296;75401;-88
2023/06/12 08:20:47;;;;;;;;;;;;;;;36.56;26.18;101548.08;105495;1297;68531;-88
2023/06/12 08:23:33;;;;;;;;;;;;;;;34.96;26.03;101541.13;105493;1297;72083;-88
2023/06/12 08:26:19;;;;;;;;;;;;;;;33.70;25.86;101542.15;105366;1297;59786;-88
2023/06/12 08:29:05;;;;;;;;;;;;;;;32.28;25.74;101538.77;105493;1296;60018;-88
2023/06/12 08:31:51;;;;;;;;;;;;;;;31.09;25.57;101527.88;105454;1298;74063;-88
2023/06/12 08:34:37;;;;;;;;;;;;;;;30.36;25.73;101526.59;105345;1297;67268;-87
2023/06/12 08:37:23;;;;;;;;;;;;;;;30.81;25.99;101521.19;105518;1297;70156;-88
2023/06/12 08:40:09;;;;;;;;;;;;;;;34.08;25.38;101522.01;105539;1296;60255;-88
2023/06/12 08:42:55;;;;;;;;;;;;;;;36.92;24.84;101518.61;105457;1297;59975;-89
2023/06/12 08:45:50;;;;;;;;;;;;;;;37.75;24.30;101520.23;105352;1296;75662;-88
2023/06/12 08:48:36;;;;;;;;;;;;;;;38.06;24.49;101513.58;105467;1297;67152;-88
2023/06/12 08:51:25;;;;;;;;;;;;;;;39.86;24.00;101518.46;105361;1297;71334;-89
2023/06/12 08:54:11;;;;;;;;;;;;;;;41.03;23.43;101519.80;105352;1297;60248;-89
2023/06/12 08:56:58;;;;;;;;;;;;;;;41.36;22.94;101525.35;105309;1297;60358;-89
2023/06/12 08:59:45;;;;;;;;;;;;;;;41.33;22.94;101520.18;105405;1297;74867;-89
2023/06/12 09:02:31;;;;;;;;;;;;;;;39.24;23.20;101516.27;105272;1296;67523;-88
2023/06/12 09:05:23;;;;;;;;;;;;;;;36.96;22.92;101505.28;105276;1297;71445;-88
2023/06/12 09:08:09;;;;;;;;;;;;;;;34.78;22.97;101511.77;105408;1297;59930;-88
2023/06/12 09:10:57;;;;;;;;;;;;;;;33.45;22.84;101510.13;105370;1297;59742;-88
2023/06/12 09:13:43;;;;;;;;;;;;;;;32.43;22.58;101506.30;105414;1297;75201;-88
2023/06/12 09:16:29;;;;;;;;;;;;;;;31.30;22.66;101497.33;105444;1297;67398;-88
2023/06/12 09:19:15;;;;;;;;;;;;;;;30.59;22.44;101488.33;105122;1299;281174;-88
2023/06/12 09:22:02;;;;;;;;;;;;;;;29.83;22.29;101484.49;105388;1296;59881;-88
2023/06/12 09:24:48;;;;;;;;;;;;;;;29.05;22.27;101487.52;105478;1296;59799;-88
2023/06/12 09:27:42;;;;;;;;;;;;;;;28.43;22.18;101489.02;105456;1298;73975;-87
2023/06/12 09:30:36;;;;;;;;;;;;;;;27.92;22.21;101481.36;105423;1297;68510;-89
2023/06/12 09:33:25;;;;;;;;;;;;;;;27.63;22.27;101480.89;105496;1297;71236;-89
2023/06/12 09:36:12;;;;;;;;;;;;;;;27.27;22.11;101483.04;105448;1298;60127;-89
2023/06/12 09:38:58;;;;;;;;;;;;;;;26.75;21.88;101472.77;105462;1296;59902;-88
2023/06/12 09:41:47;;;;;;;;;;;;;;;26.30;22.14;101466.51;105478;1296;74404;-88
2023/06/12 09:44:33;;;;;;;;;;;;;;;26.04;22.07;101467.23;105561;1297;67485;-88
2023/06/12 09:47:24;;;;;;;;;;;;;;;25.73;22.05;101463.98;105277;1300;71514;-88
2023/06/12 09:50:11;;;;;;;;;;;;;;;25.56;22.12;101472.70;105468;1300;59524;-88
2023/06/12 09:52:58;;;;;;;;;;;;;;;25.35;21.92;101467.70;105421;1299;59917;-88
2023/06/12 09:55:46;;;;;;;;;;;;;;;25.06;21.99;101471.52;105532;1297;73158;-89
2023/06/12 09:58:35;;;;;;;;;;;;;;;24.98;22.01;101468.48;105445;1297;68619;-89
2023/06/12 10:01:48;;;;;;;;;;;;;;;24.91;22.10;101463.44;105318;1296;73056;-88
2023/06/12 10:05:01;;;;;;;;;;;;;;;24.89;21.96;101456.70;104996;1302;60010;-88
2023/06/12 10:07:59;;;;;;;;;;;;;;;24.78;21.98;101458.96;105052;1303;60128;-89
2023/06/12 10:10:57;;;;;;;;;;;;;;;24.65;21.87;101457.30;104999;1303;75445;-88
2023/06/12 10:13:44;;;;;;;;;;;;;;;24.50;21.95;101455.08;105001;1303;67609;-88
2023/06/12 10:16:47;;;;;;;;;;;;;;;;;;;;;
2023/06/12 10:19:35;;;;;;;;;;;;;;;24.52;22.16;101448.11;105028;1303;59785;-88
2023/06/12 10:22:22;;;;;;;;;;;;;;;24.50;21.93;101447.17;105014;1303;59956;-88
2023/06/12 10:25:20;;;;;;;;;;;;;;;24.48;22.06;101445.52;105038;1303;75126;-88
2023/06/12 10:28:25;;;;;;;;;;;;;;;24.50;22.14;101440.29;104985;1303;67930;-87
2023/06/12 10:31:25;;;;;;;;;;;;;;;24.52;22.11;101443.52;105023;1302;72564;-89
2023/06/12 10:34:29;;;;;;;;;;;;;;;24.43;22.08;101436.48;105064;1302;59954;-89
2023/06/12 10:37:25;;;;;;;;;;;;;;;24.43;22.15;101436.64;104999;1303;60199;-87
2023/06/12 10:40:24;;;;;;;;;;;;;;;24.42;22.04;101426.31;105025;1302;74460;-87
2023/06/12 10:43:20;;;;;;;;;;;;;;;24.42;22.23;101424.00;105502;1297;68582;-88
2023/06/12 10:46:11;;;;;;;;;;;;;;;24.46;22.29;101424.27;105366;1299;72658;-88
2023/06/12 10:49:04;;;;;;;;;;;;;;;24.53;22.37;101407.45;105478;1298;60099;-88
2023/06/12 10:52:11;;;;;;;;;;;;;;;24.60;22.31;101413.04;105595;1296;59641;-90
2023/06/12 10:55:18;;;;;;;;;;;;;;;24.63;22.31;101419.36;105565;1296;75348;-88
2023/06/12 10:58:11;;;;;;;;;;;;;;;24.57;22.39;101416.55;105249;1300;67244;-89
2023/06/12 11:01:19;;;;;;;;;;;;;;;24.55;22.49;101406.82;105010;1300;71359;-89
2023/06/12 11:04:10;;;;;;;;;;;;;;;24.61;22.41;101399.02;105199;1300;60048;-88
2023/06/12 11:06:57;;;;;;;;;;;;;;;24.63;22.60;101395.18;105079;1300;59975;-89
2023/06/12 11:09:44;;;;;;;;;;;;;;;24.64;22.51;101399.55;105200;1300;74285;-88
2023/06/12 11:12:32;;;;;;;;;;;;;;;24.65;22.63;101401.95;105192;1300;69252;-89
2023/06/12 11:15:21;;;;;;;;;;;;;;;24.69;22.64;101398.70;105134;1299;72466;-89
2023/06/12 11:18:09;;;;;;;;;;;;;;;24.71;22.52;101398.05;105245;1299;59823;-86
2023/06/12 11:20:55;;;;;;;;;;;;;;;24.69;22.56;101387.96;105264;1299;60169;-87
2023/06/12 11:23:50;;;;;;;;;;;;;;;24.72;22.57;101372.77;105168;1300;75486;-89
2023/06/12 11:26:36;;;;;;;;;;;;;;;24.74;22.58;101369.97;105240;1301;68384;-88
2023/06/12 11:29:25;;;;;;;;;;;;;;;24.74;22.54;101364.85;105243;1299;71469;-89
2023/06/12 11:32:15;;;;;;;;;;;;;;;24.71;22.49;101361.38;105228;1303;59905;-89
2023/06/12 11:35:03;;;;;;;;;;;;;;;24.71;22.63;101367.35;105278;1299;60622;-88
2023/06/12 11:37:49;;;;;;;;;;;;;;;24.72;22.68;101364.12;105281;1300;76485;-89
2023/06/12 11:40:35;;;;;;;;;;;;;;;24.77;22.58;101362.93;105220;1300;67566;-88
2023/06/12 11:43:22;;;;;;;;;;;;;;;24.82;22.61;101364.58;105237;1299;73100;-88
2023/06/12 11:46:17;;;;;;;;;;;;;;;24.80;22.64;101354.64;105202;1299;59646;-89
2023/06/12 11:49:03;;;;;;;;;;;;;;;24.80;22.64;101354.32;105270;1297;59860;-88
2023/06/12 11:51:49;;;;;;;;;;;;;;;24.75;22.56;101350.36;105379;1300;75968;-89
2023/06/12 11:54:54;;;;;;;;;;;;;;;24.67;22.70;101348.55;105473;1295;67389;-88
2023/06/12 11:57:47;;;;;;;;;;;;;;;24.71;22.63;101352.91;105560;1297;72116;-89
2023/06/12 12:00:39;;;;;;;;;;;;;;;24.71;22.71;101346.75;105484;1297;59922;-87
2023/06/12 12:03:27;;;;;;;;;;;;;;;24.70;22.62;101342.20;105419;1297;60112;-88
2023/06/12 12:06:16;;;;;;;;;;;;;;;24.70;22.68;101335.14;105314;1299;74238;-88
2023/06/12 12:09:12;;;;;;;;;;;;;;;24.78;22.70;101338.55;105454;1297;67152;-88
2023/06/12 12:12:06;;;;;;;;;;;;;;;24.79;22.65;101336.23;105427;1297;71217;-88
2023/06/12 12:14:52;;;;;;;;;;;;;;;24.76;22.66;101326.68;105410;1298;59753;-88
2023/06/12 12:17:39;;;;;;;;;;;;;;;24.81;22.70;101327.80;105406;1298;60271;-88
2023/06/12 12:20:26;;;;;;;;;;;;;;;24.90;22.77;101326.82;105442;1297;75503;-88
2023/06/12 12:23:13;;;;;;;;;;;;;;;24.94;22.72;101327.80;105315;1298;67907;-88
2023/06/12 12:26:00;;;;;;;;;;;;;;;24.92;22.74;101318.06;105473;1297;70392;-88
2023/06/12 12:28:47;;;;;;;;;;;;;;;24.94;22.76;101317.95;105393;1296;60094;-89
2023/06/12 12:31:35;;;;;;;;;;;;;;;24.95;22.61;101316.13;105442;1298;59870;-88
2023/06/12 12:34:22;;;;;;;;;;;;;;;24.93;22.70;101316.59;105475;1296;74485;-88
2023/06/12 12:37:08;;;;;;;;;;;;;;;24.93;22.63;101308.10;105532;1297;68626;-89
2023/06/12 12:39:54;;;;;;;;;;;;;;;24.92;22.58;101298.48;105477;1298;71835;-88
2023/06/12 12:42:50;;;;;;;;;;;;;;;24.94;22.65;101299.73;105454;1298;60058;-88
2023/06/12 12:45:36;;;;;;;;;;;;;;;24.94;22.52;101294.46;105436;1298;60060;-88
2023/06/12 12:48:42;;;;;;;;;;;;;;;24.96;22.59;101291.49;105365;1296;74165;-89
2023/06/12 12:51:29;;;;;;;;;;;;;;;24.99;22.51;101294.11;105542;1297;68447;-88
2023/06/12 12:54:15;;;;;;;;;;;;;;;24.99;22.56;101291.15;105465;1296;72392;-88
2023/06/12 12:57:01;;;;;;;;;;;;;;;24.98;22.39;101286.94;105484;1296;59998;-87
2023/06/12 12:59:49;;;;;;;;;;;;;;;24.92;22.46;101281.73;105569;1296;59564;-87
2023/06/12 13:02:36;;;;;;;;;;;;;;;24.95;22.60;101284.33;105443;1297;75417;-88
2023/06/12 13:05:22;;;;;;;;;;;;;;;24.99;22.47;101284.45;105494;1297;66402;-88
2023/06/12 13:08:10;;;;;;;;;;;;;;;24.97;22.52;101279.29;105387;1296;71496;-88
2023/06/12 13:10:57;;;;;;;;;;;;;;;24.99;22.55;101273.27;105444;1298;59792;-88
2023/06/12 13:13:43;;;;;;;;;;;;;;;25.03;22.44;101273.92;105493;1297;60460;-88
2023/06/12 13:16:28;;;;;;;;;;;;;;;25.04;22.53;101267.83;105378;1298;74844;-87
2023/06/12 13:19:15;;;;;;;;;;;;;;;25.08;22.53;101262.99;105405;1300;68503;-88
2023/06/12 13:22:01;;;;;;;;;;;;;;;25.14;22.64;101260.32;105477;1297;73629;-88
2023/06/12 13:24:47;;;;;;;;;;;;;;;25.20;22.63;101262.90;105430;1297;60089;-88
2023/06/12 13:27:33;;;;;;;;;;;;;;;25.21;22.53;101252.78;105501;1297;60006;-88
2023/06/12 13:30:19;;;;;;;;;;;;;;;25.21;22.56;101253.52;105482;1300;74126;-88
2023/06/12 13:33:05;;;;;;;;;;;;;;;25.19;22.46;101253.27;105428;1298;68422;-88
2023/06/12 13:35:51;;;;;;;;;;;;;;;25.21;22.45;101248.04;98105;1297;10001868;-87
2023/06/12 13:38:37;;;;;;;;;;;;;;;25.20;22.51;101248.98;105406;1297;59750;-88
2023/06/12 13:41:23;;;;;;;;;;;;;;;25.22;22.55;101250.58;105561;1297;76586;-88
2023/06/12 13:44:09;;;;;;;;;;;;;;;25.19;22.43;101244.44;105521;1298;69625;-88
2023/06/12 13:46:56;;;;;;;;;;;;;;;25.20;22.49;101239.65;105362;1300;73259;-88
2023/06/12 13:49:41;;;;;;;;;;;;;;;25.25;22.58;101241.39;105443;1298;59847;-88
2023/06/12 13:52:29;;;;;;;;;;;;;;;25.28;22.46;101241.19;101397;1300;5158822;-88
2023/06/12 13:55:15;;;;;;;;;;;;;;;25.26;22.23;101236.20;105456;1297;75440;-88
2023/06/12 13:58:05;;;;;;;;;;;;;;;25.18;22.21;101235.33;105533;1297;68562;-87
2023/06/12 14:00:51;;;;;;;;;;;;;;;25.11;22.32;101233.03;105395;1300;72143;-88
2023/06/12 14:03:37;;;;;;;;;;;;;;;25.08;22.36;101230.88;105567;1297;59746;-87
2023/06/12 14:06:25;;;;;;;;;;;;;;;25.07;22.41;101224.59;105245;1298;59923;-88
2023/06/12 14:09:11;;;;;;;;;;;;;;;25.11;22.48;101237.06;105433;1299;75312;-87
2023/06/12 14:11:57;;;;;;;;;;;;;;;25.09;22.35;101226.94;105425;1298;68252;-87
2023/06/12 14:14:46;;;;;;;;;;;;;;;25.07;22.41;101224.63;105597;1300;73012;-87